Terminal Aerodrome Forecast
Issued by NWS Charleston, WV

Current Version | Previous Version | Graphics & Text | Print | Product List | Glossary On
Versions: 1 2 3 4 5 6 7 8 9 10 11 12 13 14 15 16 17 18 19 20 21 22 23 24 25 26
707
FTUS41 KRLX 210905 AAA
TAFBKW
TAF AMD
KBKW 210905Z 2109/2206 26004KT 6SM BR OVC035
     FM211200 28004KT 3SM BR OVC030
     FM212000 32005KT P6SM BKN035
     FM212200 32005KT P6SM BKN035=

USA.gov is the U.S. government's official web portal to all federal, state and local government web resources and services.